createdAt,value
2018-07-05T00:00:06.448Z,1003.01
2018-07-05T00:01:15.467Z,1003.05
2018-07-05T00:02:31.448Z,1003.06
2018-07-05T00:03:28.996Z,1003.07
2018-07-05T00:04:35.562Z,1003.06
2018-07-05T00:05:25.220Z,1003.09
2018-07-05T00:06:44.173Z,1003.12
2018-07-05T00:08:22.888Z,1003.09
2018-07-05T00:09:20.333Z,1003.12
2018-07-05T00:10:03.036Z,1003.14
2018-07-05T00:11:01.097Z,1003.10
2018-07-05T00:12:17.897Z,1003.11
2018-07-05T00:13:51.082Z,1003.08
2018-07-05T00:14:31.993Z,1003.04
2018-07-05T00:16:28.370Z,1003.03
2018-07-05T00:18:09.438Z,1003.02
2018-07-05T00:19:01.355Z,1002.98
2018-07-05T00:20:43.452Z,1002.99
2018-07-05T00:22:16.530Z,1002.92
2018-07-05T00:23:11.505Z,1002.89
2018-07-05T00:24:35.695Z,1002.94
2018-07-05T00:25:50.755Z,1002.87
2018-07-05T00:26:43.694Z,1002.85
2018-07-05T00:28:08.892Z,1002.88
2018-07-05T00:30:12.284Z,1002.86
2018-07-05T00:30:31.024Z,1002.89
2018-07-05T00:32:29.502Z,1002.86
2018-07-05T00:34:29.105Z,1002.92
2018-07-05T00:35:45.498Z,1002.95
2018-07-05T00:36:52.570Z,1002.93
2018-07-05T00:38:28.727Z,1002.96
2018-07-05T00:39:57.099Z,1002.97
2018-07-05T00:41:17.889Z,1003.00
2018-07-05T00:42:00.898Z,1002.96
2018-07-05T00:42:59.380Z,1002.97
2018-07-05T00:43:56.922Z,1002.93
2018-07-05T00:44:53.650Z,1002.88
2018-07-05T00:46:00.412Z,1002.89
2018-07-05T00:47:28.183Z,1002.89
2018-07-05T00:48:45.586Z,1002.89
2018-07-05T00:50:43.962Z,1002.88
2018-07-05T00:51:51.851Z,1002.87
2018-07-05T00:53:01.791Z,1002.86
2018-07-05T00:54:04.357Z,1002.85
2018-07-05T00:54:47.682Z,1002.85
2018-07-05T00:55:58.848Z,1002.81
2018-07-05T00:57:14.208Z,1002.74
2018-07-05T00:58:18.208Z,1002.79
2018-07-05T00:59:14.223Z,1002.73
2018-07-05T01:01:28.984Z,1002.76
2018-07-05T01:02:36.361Z,1002.77
2018-07-05T01:03:49.372Z,1002.79
2018-07-05T01:04:48.767Z,1002.79
2018-07-05T01:06:59.325Z,1002.82
2018-07-05T01:07:52.677Z,1002.81
2018-07-05T01:09:08.249Z,1002.82
2018-07-05T01:10:13.892Z,1002.82
2018-07-05T01:11:23.521Z,1002.84
2018-07-05T01:14:37.364Z,1002.88
2018-07-05T01:15:48.329Z,1002.91
2018-07-05T01:16:41.990Z,1002.92
2018-07-05T01:17:51.516Z,1002.96
2018-07-05T01:20:05.256Z,1003.03
2018-07-05T01:21:13.348Z,1003.02
2018-07-05T01:22:04.754Z,1003.03
2018-07-05T01:23:21.656Z,1003.01
2018-07-05T01:25:25.053Z,1003.00
2018-07-05T01:26:21.779Z,1002.93
2018-07-05T01:27:34.996Z,1002.90
2018-07-05T01:28:57.530Z,1002.90
2018-07-05T01:29:54.978Z,1002.87
2018-07-05T01:30:52.628Z,1002.94
2018-07-05T01:31:57.865Z,1002.88
2018-07-05T01:33:02.267Z,1002.92
2018-07-05T01:34:13.847Z,1002.90
2018-07-05T01:35:16.719Z,1002.92
2018-07-05T01:37:36.498Z,1002.88
2018-07-05T01:38:37.542Z,1002.84
2018-07-05T01:39:48.184Z,1002.83
2018-07-05T01:40:42.865Z,1002.85
2018-07-05T01:41:56.399Z,1002.81
2018-07-05T01:42:54.038Z,1002.78
2018-07-05T01:44:06.747Z,1002.82
2018-07-05T01:45:03.990Z,1002.79
2018-07-05T01:46:19.972Z,1002.81
2018-07-05T01:48:21.027Z,1002.82
2018-07-05T01:49:34.227Z,1002.85
2018-07-05T01:51:37.545Z,1002.88
2018-07-05T01:52:49.399Z,1002.92
2018-07-05T01:54:02.105Z,1002.95
2018-07-05T01:54:56.684Z,1002.98
2018-07-05T01:55:57.716Z,1002.98
2018-07-05T01:57:06.937Z,1002.97
2018-07-05T01:58:12.884Z,1002.94
2018-07-05T02:00:24.982Z,1002.94
2018-07-05T02:02:41.481Z,1002.83
2018-07-05T02:03:55.321Z,1002.83
2018-07-05T02:04:51.222Z,1002.85
2018-07-05T02:05:51.536Z,1002.85
2018-07-05T02:07:07.315Z,1002.84
2018-07-05T02:07:57.079Z,1002.88
2018-07-05T02:09:08.351Z,1002.86
2018-07-05T02:10:07.128Z,1002.84
2018-07-05T02:11:17.478Z,1002.84
2018-07-05T02:12:27.322Z,1002.86
2018-07-05T02:13:25.583Z,1002.89
2018-07-05T02:14:27.660Z,1002.88
2018-07-05T02:15:43.619Z,1002.90
2018-07-05T02:16:56.628Z,1002.89
2018-07-05T02:17:53.359Z,1002.87
2018-07-05T02:18:55.557Z,1002.83
2018-07-05T02:19:59.724Z,1002.82
2018-07-05T02:21:12.327Z,1002.88
2018-07-05T02:22:17.347Z,1002.82
2018-07-05T02:24:22.564Z,1002.84
2018-07-05T02:25:26.686Z,1002.82
2018-07-05T02:26:27.818Z,1002.80
2018-07-05T02:27:35.814Z,1002.79
2018-07-05T02:28:42.681Z,1002.76
2018-07-05T02:29:50.683Z,1002.78
2018-07-05T02:30:52.220Z,1002.75
2018-07-05T02:32:08.200Z,1002.77
2018-07-05T02:33:05.340Z,1002.73
2018-07-05T02:34:12.207Z,1002.71
2018-07-05T02:35:21.224Z,1002.76
2018-07-05T02:36:20.310Z,1002.76
2018-07-05T02:38:35.377Z,1002.76
2018-07-05T02:39:41.221Z,1002.76
2018-07-05T02:40:36.823Z,1002.74
2018-07-05T02:41:56.047Z,1002.74
2018-07-05T02:42:59.162Z,1002.75
2018-07-05T02:43:54.152Z,1002.77
2018-07-05T02:44:59.584Z,1002.79
2018-07-05T02:47:15.778Z,1002.80
2018-07-05T02:48:26.640Z,1002.79
2018-07-05T02:49:26.544Z,1002.80
2018-07-05T02:50:40.791Z,1002.80
2018-07-05T02:52:45.815Z,1002.77
2018-07-05T02:54:54.636Z,1002.77
2018-07-05T02:56:00.149Z,1002.74
2018-07-05T02:57:05.912Z,1002.78
2018-07-05T02:58:17.053Z,1002.73
2018-07-05T03:01:32.462Z,1002.73
2018-07-05T03:02:42.581Z,1002.69
2018-07-05T03:03:38.055Z,1002.71
2018-07-05T03:05:50.308Z,1002.65
2018-07-05T03:06:54.627Z,1002.67
2018-07-05T03:08:06.705Z,1002.66
2018-07-05T03:09:13.265Z,1002.65
2018-07-05T03:10:15.626Z,1002.67
2018-07-05T03:11:17.581Z,1002.68
2018-07-05T03:13:31.827Z,1002.69
2018-07-05T03:14:33.474Z,1002.74
2018-07-05T03:15:44.745Z,1002.74
2018-07-05T03:17:52.846Z,1002.77
2018-07-05T03:18:52.649Z,1002.73
2018-07-05T03:19:58.906Z,1002.74
2018-07-05T03:21:09.865Z,1002.76
2018-07-05T03:22:13.053Z,1002.72
2018-07-05T03:23:20.062Z,1002.75
2018-07-05T03:24:33.539Z,1002.73
2018-07-05T03:25:26.341Z,1002.73
2018-07-05T03:27:41.206Z,1002.73
2018-07-05T03:28:51.900Z,1002.77
2018-07-05T03:30:03.600Z,1002.79
2018-07-05T03:30:57.439Z,1002.84
2018-07-05T03:32:03.181Z,1002.86
2018-07-05T03:33:06.362Z,1002.87
2018-07-05T03:34:17.068Z,1002.88
2018-07-05T03:35:19.073Z,1002.91
2018-07-05T03:36:31.266Z,1002.88
2018-07-05T03:37:32.302Z,1002.88
2018-07-05T03:38:39.881Z,1002.89
2018-07-05T03:39:40.194Z,1002.88
2018-07-05T03:40:39.179Z,1002.90
2018-07-05T03:41:50.448Z,1002.88
2018-07-05T03:43:02.540Z,1002.89
2018-07-05T03:44:04.593Z,1002.89
2018-07-05T03:45:11.462Z,1002.84
2018-07-05T03:46:20.992Z,1002.80
2018-07-05T03:47:29.602Z,1002.74
2018-07-05T03:48:23.974Z,1002.73
2018-07-05T03:49:32.724Z,1002.68
2018-07-05T03:50:54.095Z,1002.66
2018-07-05T03:51:37.983Z,1002.66
2018-07-05T03:52:47.041Z,1002.68
2018-07-05T03:54:57.295Z,1002.62
2018-07-05T03:57:09.290Z,1002.61
2018-07-05T03:58:12.265Z,1002.61
2018-07-05T04:00:27.026Z,1002.63
2018-07-05T04:01:31.131Z,1002.63
2018-07-05T04:02:35.996Z,1002.68
2018-07-05T04:03:49.063Z,1002.63
2018-07-05T04:05:56.615Z,1002.66
2018-07-05T04:07:09.357Z,1002.66
2018-07-05T04:09:12.444Z,1002.69
2018-07-05T04:10:20.950Z,1002.66
2018-07-05T04:11:17.577Z,1002.68
2018-07-05T04:13:34.282Z,1002.60
2018-07-05T04:14:47.807Z,1002.62
2018-07-05T04:16:56.632Z,1002.64
2018-07-05T04:17:54.072Z,1002.66
2018-07-05T04:19:06.776Z,1002.64
2018-07-05T04:20:05.656Z,1002.66
2018-07-05T04:21:12.080Z,1002.66
2018-07-05T04:22:14.993Z,1002.67
2018-07-05T04:23:27.591Z,1002.64
2018-07-05T04:24:34.665Z,1002.67
2018-07-05T04:26:45.943Z,1002.69
2018-07-05T04:27:51.786Z,1002.68
2018-07-05T04:31:05.426Z,1002.58
2018-07-05T04:32:05.086Z,1002.59
2018-07-05T04:33:16.090Z,1002.60
2018-07-05T04:34:16.566Z,1002.63
2018-07-05T04:36:27.782Z,1002.71
2018-07-05T04:37:35.673Z,1002.75
2018-07-05T04:39:46.030Z,1002.78
2018-07-05T04:43:01.001Z,1002.81
2018-07-05T04:44:12.093Z,1002.76
2018-07-05T04:45:20.674Z,1002.79
2018-07-05T04:46:15.355Z,1002.76
2018-07-05T04:47:28.368Z,1002.79
2018-07-05T04:49:30.327Z,1002.78
2018-07-05T04:50:46.089Z,1002.79
2018-07-05T04:51:51.435Z,1002.78
2018-07-05T04:52:55.948Z,1002.80
2018-07-05T04:54:06.241Z,1002.77
2018-07-05T04:55:07.225Z,1002.79
2018-07-05T04:56:06.312Z,1002.78
2018-07-05T04:57:25.090Z,1002.80
2018-07-05T04:58:17.286Z,1002.80
2018-07-05T05:00:34.194Z,1002.82
2018-07-05T05:01:44.092Z,1002.84
2018-07-05T05:02:39.635Z,1002.84
2018-07-05T05:03:48.035Z,1002.89
2018-07-05T05:04:53.093Z,1002.93
2018-07-05T05:06:01.771Z,1002.93
2018-07-05T05:07:05.166Z,1002.91
2018-07-05T05:08:11.411Z,1002.91
2018-07-05T05:09:20.095Z,1002.94
2018-07-05T05:10:22.095Z,1002.88
2018-07-05T05:11:22.595Z,1002.90
2018-07-05T05:12:42.464Z,1002.88
2018-07-05T05:13:47.906Z,1002.91
2018-07-05T05:14:48.008Z,1002.92
2018-07-05T05:15:45.574Z,1002.92
2018-07-05T05:16:54.884Z,1002.93
2018-07-05T05:20:21.326Z,1003.00
2018-07-05T05:21:16.315Z,1002.98
2018-07-05T05:22:19.596Z,1003.02
2018-07-05T05:24:34.967Z,1003.05
2018-07-05T05:26:46.865Z,1003.04
2018-07-05T05:27:56.158Z,1003.01
2018-07-05T05:28:58.651Z,1003.01
2018-07-05T05:30:10.947Z,1003.02
2018-07-05T05:31:15.766Z,1003.02
2018-07-05T05:32:06.350Z,1003.02
2018-07-05T05:33:31.550Z,1003.04
2018-07-05T05:34:26.947Z,1003.02
2018-07-05T05:35:34.224Z,1003.07
2018-07-05T05:37:41.100Z,1003.05
2018-07-05T05:38:52.068Z,1003.05
2018-07-05T05:41:01.190Z,1003.02
2018-07-05T05:42:17.991Z,1003.04
2018-07-05T05:43:03.106Z,1003.05
2018-07-05T05:44:07.456Z,1003.08
2018-07-05T05:45:24.667Z,1003.03
2018-07-05T05:46:23.758Z,1003.06
2018-07-05T05:47:27.035Z,1003.08
2018-07-05T05:48:42.514Z,1003.09
2018-07-05T05:50:40.162Z,1003.08
2018-07-05T05:52:10.685Z,1003.08
2018-07-05T05:53:01.888Z,1003.10
2018-07-05T05:54:18.483Z,1003.10
2018-07-05T05:55:16.748Z,1003.10
2018-07-05T05:56:27.914Z,1003.09
2018-07-05T05:57:15.224Z,1003.11
2018-07-05T05:59:42.784Z,1003.12
2018-07-05T06:00:37.261Z,1003.11
2018-07-05T06:01:43.424Z,1003.13
2018-07-05T06:02:53.353Z,1003.11
2018-07-05T06:03:55.716Z,1003.08
2018-07-05T06:05:12.105Z,1003.08
2018-07-05T06:06:17.133Z,1003.06
2018-07-05T06:07:19.902Z,1003.05
2018-07-05T06:08:18.882Z,1003.03
2018-07-05T06:09:28.620Z,1003.00
2018-07-05T06:10:44.402Z,1003.03
2018-07-05T06:11:46.860Z,1003.01
2018-07-05T06:12:50.145Z,1003.03
2018-07-05T06:13:54.115Z,1003.05
2018-07-05T06:14:54.149Z,1003.07
2018-07-05T06:15:47.602Z,1003.09
2018-07-05T06:18:13.728Z,1003.11
2018-07-05T06:19:26.116Z,1003.14
2018-07-05T06:20:21.118Z,1003.15
2018-07-05T06:21:32.487Z,1003.13
2018-07-05T06:22:21.320Z,1003.14
2018-07-05T06:23:30.126Z,1003.17
2018-07-05T06:24:43.057Z,1003.16
2018-07-05T06:26:19.648Z,1003.16
2018-07-05T06:27:12.459Z,1003.15
2018-07-05T06:27:51.123Z,1003.17
2018-07-05T06:29:10.937Z,1003.15
2018-07-05T06:30:28.557Z,1003.14
2018-07-05T06:31:19.870Z,1003.13
2018-07-05T06:32:35.535Z,1003.16
2018-07-05T06:33:54.588Z,1003.17
2018-07-05T06:34:53.878Z,1003.20
2018-07-05T06:35:49.790Z,1003.21
2018-07-05T06:36:53.123Z,1003.25
2018-07-05T06:38:00.450Z,1003.33
2018-07-05T06:39:26.584Z,1003.37
2018-07-05T06:40:28.013Z,1003.41
2018-07-05T06:40:54.646Z,1003.46
2018-07-05T06:42:26.181Z,1003.53
2018-07-05T06:43:24.653Z,1003.57
2018-07-05T06:44:09.301Z,1003.62
2018-07-05T06:45:46.171Z,1003.62
2018-07-05T06:46:48.326Z,1003.65
2018-07-05T06:47:34.226Z,1003.64
2018-07-05T06:48:55.129Z,1003.66
2018-07-05T06:49:50.131Z,1003.58
2018-07-05T06:51:19.588Z,1003.58
2018-07-05T06:52:26.251Z,1003.58
2018-07-05T06:52:58.113Z,1003.59
2018-07-05T06:54:21.346Z,1003.61
2018-07-05T06:55:19.715Z,1003.62
2018-07-05T06:56:43.890Z,1003.66
2018-07-05T06:57:43.384Z,1003.71
2018-07-05T06:58:28.856Z,1003.69
2018-07-05T07:00:03.160Z,1003.70
2018-07-05T07:01:52.130Z,1003.58
2018-07-05T07:02:51.617Z,1003.54
2018-07-05T07:03:51.514Z,1003.53
2018-07-05T07:05:12.514Z,1003.54
2018-07-05T07:06:05.762Z,1003.48
2018-07-05T07:07:11.298Z,1003.48
2018-07-05T07:08:18.472Z,1003.44
2018-07-05T07:09:29.540Z,1003.38
2018-07-05T07:10:42.969Z,1003.43
2018-07-05T07:11:37.846Z,1003.39
2018-07-05T07:12:48.606Z,1003.40
2018-07-05T07:13:44.213Z,1003.40
2018-07-05T07:14:48.618Z,1003.41
2018-07-05T07:16:06.186Z,1003.44
2018-07-05T07:18:08.506Z,1003.49
2018-07-05T07:19:15.886Z,1003.53
2018-07-05T07:20:33.709Z,1003.52
2018-07-05T07:22:46.336Z,1003.43
2018-07-05T07:23:35.142Z,1003.42
2018-07-05T07:25:49.522Z,1003.49
2018-07-05T07:26:57.822Z,1003.54
2018-07-05T07:27:58.643Z,1003.53
2018-07-05T07:29:14.828Z,1003.50
2018-07-05T07:30:09.511Z,1003.52
2018-07-05T07:31:11.781Z,1003.54
2018-07-05T07:32:25.495Z,1003.54
2018-07-05T07:33:32.779Z,1003.54
2018-07-05T07:34:36.144Z,1003.53
2018-07-05T07:35:28.144Z,1003.51
2018-07-05T07:36:37.709Z,1003.57
2018-07-05T07:37:50.108Z,1003.55
2018-07-05T07:38:53.397Z,1003.54
2018-07-05T07:40:06.197Z,1003.53
2018-07-05T07:42:11.728Z,1003.50
2018-07-05T07:43:09.187Z,1003.53
2018-07-05T07:44:30.239Z,1003.54
2018-07-05T07:45:25.427Z,1003.48
2018-07-05T07:46:30.200Z,1003.48
2018-07-05T07:47:34.810Z,1003.48
2018-07-05T07:48:45.681Z,1003.47
2018-07-05T07:50:58.293Z,1003.38
2018-07-05T07:51:56.346Z,1003.37
2018-07-05T07:54:09.977Z,1003.39
2018-07-05T07:55:06.612Z,1003.34
2018-07-05T07:59:42.167Z,1003.31
2018-07-05T08:00:42.149Z,1003.34
2018-07-05T08:01:55.594Z,1003.34
2018-07-05T08:02:55.095Z,1003.39
2018-07-05T08:05:02.376Z,1003.42
2018-07-05T08:06:20.201Z,1003.45
2018-07-05T08:07:12.631Z,1003.40
2018-07-05T08:08:24.411Z,1003.37
2018-07-05T08:09:30.667Z,1003.39
2018-07-05T08:10:32.922Z,1003.43
2018-07-05T08:11:48.152Z,1003.48
2018-07-05T08:12:53.215Z,1003.47
2018-07-05T08:14:55.897Z,1003.47
2018-07-05T08:15:55.996Z,1003.50
2018-07-05T08:18:23.154Z,1003.49
2018-07-05T08:19:26.737Z,1003.44
2018-07-05T08:20:38.829Z,1003.49
2018-07-05T08:21:29.312Z,1003.48
2018-07-05T08:22:41.508Z,1003.50
2018-07-05T08:23:45.503Z,1003.55
2018-07-05T08:24:54.111Z,1003.55
2018-07-05T08:25:51.741Z,1003.56
2018-07-05T08:26:54.133Z,1003.54
2018-07-05T08:29:18.828Z,1003.49
2018-07-05T08:30:15.966Z,1003.59
2018-07-05T08:32:22.941Z,1003.59
2018-07-05T08:33:24.280Z,1003.60
2018-07-05T08:34:33.290Z,1003.58
2018-07-05T08:35:51.744Z,1003.57
2018-07-05T08:36:58.188Z,1003.57
2018-07-05T08:37:50.943Z,1003.61
2018-07-05T08:38:49.161Z,1003.60
2018-07-05T08:40:20.125Z,1003.63
2018-07-05T08:41:09.468Z,1003.61
2018-07-05T08:42:24.845Z,1003.61
2018-07-05T08:43:29.665Z,1003.60
2018-07-05T08:44:23.018Z,1003.58
2018-07-05T08:46:54.466Z,1003.57
2018-07-05T08:47:47.725Z,1003.57
2018-07-05T08:49:01.958Z,1003.61
2018-07-05T08:50:36.172Z,1003.61
2018-07-05T08:52:15.703Z,1003.59
2018-07-05T08:52:41.098Z,1003.58
2018-07-05T08:54:06.392Z,1003.55
2018-07-05T08:55:16.333Z,1003.53
2018-07-05T08:55:58.170Z,1003.56
2018-07-05T08:57:10.168Z,1003.50
2018-07-05T08:58:21.479Z,1003.52
2018-07-05T09:00:17.169Z,1003.50
2018-07-05T09:01:27.741Z,1003.51
2018-07-05T09:02:22.626Z,1003.53
2018-07-05T09:03:36.868Z,1003.54
2018-07-05T09:04:36.873Z,1003.57
2018-07-05T09:05:43.333Z,1003.50
2018-07-05T09:07:51.172Z,1003.50
2018-07-05T09:08:53.900Z,1003.49
2018-07-05T09:10:08.171Z,1003.49
2018-07-05T09:11:20.741Z,1003.50
2018-07-05T09:12:20.339Z,1003.47
2018-07-05T09:13:23.110Z,1003.46
2018-07-05T09:15:37.567Z,1003.46
2018-07-05T09:16:42.792Z,1003.40
2018-07-05T09:17:49.366Z,1003.45
2018-07-05T09:18:55.606Z,1003.44
2018-07-05T09:21:01.152Z,1003.42
2018-07-05T09:22:12.224Z,1003.43
2018-07-05T09:23:15.868Z,1003.42
2018-07-05T09:24:09.481Z,1003.41
2018-07-05T09:26:37.152Z,1003.45
2018-07-05T09:27:28.941Z,1003.44
2018-07-05T09:28:44.513Z,1003.43
2018-07-05T09:30:05.614Z,1003.43
2018-07-05T09:30:50.364Z,1003.43
2018-07-05T09:32:06.761Z,1003.46
2018-07-05T09:33:04.922Z,1003.47
2018-07-05T09:34:24.797Z,1003.45
2018-07-05T09:35:18.669Z,1003.44
2018-07-05T09:37:30.266Z,1003.41
2018-07-05T09:38:36.500Z,1003.44
2018-07-05T09:39:35.064Z,1003.41
2018-07-05T09:40:40.089Z,1003.39
2018-07-05T09:42:47.884Z,1003.39
2018-07-05T09:45:06.329Z,1003.43
2018-07-05T09:46:00.199Z,1003.44
2018-07-05T09:47:16.892Z,1003.42
2018-07-05T09:48:41.072Z,1003.44
2018-07-05T09:49:38.819Z,1003.43
2018-07-05T09:50:40.258Z,1003.46
2018-07-05T09:51:45.999Z,1003.45
2018-07-05T09:53:43.263Z,1003.45
2018-07-05T09:54:49.406Z,1003.45
2018-07-05T09:56:15.724Z,1003.45
2018-07-05T09:57:34.311Z,1003.42
2018-07-05T09:58:14.513Z,1003.44
2018-07-05T09:59:12.779Z,1003.41
2018-07-05T10:00:24.464Z,1003.37
2018-07-05T10:01:36.034Z,1003.42
2018-07-05T10:02:26.622Z,1003.42
2018-07-05T10:03:36.203Z,1003.42
2018-07-05T10:04:35.187Z,1003.42
2018-07-05T10:05:42.920Z,1003.43
2018-07-05T10:06:56.343Z,1003.45
2018-07-05T10:07:55.221Z,1003.40
2018-07-05T10:09:09.053Z,1003.44
2018-07-05T10:10:07.113Z,1003.44
2018-07-05T10:11:12.760Z,1003.43
2018-07-05T10:13:28.106Z,1003.38
2018-07-05T10:15:38.074Z,1003.37
2018-07-05T10:17:42.595Z,1003.35
2018-07-05T10:18:52.847Z,1003.36
2018-07-05T10:19:52.231Z,1003.35
2018-07-05T10:20:58.697Z,1003.27
2018-07-05T10:22:14.569Z,1003.32
2018-07-05T10:23:19.388Z,1003.28
2018-07-05T10:24:30.558Z,1003.32
2018-07-05T10:26:32.822Z,1003.26
2018-07-05T10:27:32.934Z,1003.29
2018-07-05T10:28:32.737Z,1003.25
2018-07-05T10:29:45.747Z,1003.29
2018-07-05T10:32:12.281Z,1003.29
2018-07-05T10:33:06.350Z,1003.29
2018-07-05T10:35:10.663Z,1003.25
2018-07-05T10:37:30.441Z,1003.23
2018-07-05T10:38:27.682Z,1003.21
2018-07-05T10:41:42.039Z,1003.22
2018-07-05T10:42:58.429Z,1003.17
2018-07-05T10:43:56.183Z,1003.17
2018-07-05T10:46:10.330Z,1003.23
2018-07-05T10:47:30.825Z,1003.21
2018-07-05T10:48:24.207Z,1003.20
2018-07-05T10:49:31.239Z,1003.22
2018-07-05T10:50:37.917Z,1003.24
2018-07-05T10:53:00.342Z,1003.22
2018-07-05T10:53:59.735Z,1003.25
2018-07-05T10:54:51.240Z,1003.23
2018-07-05T10:57:06.922Z,1003.26
2018-07-05T10:58:21.266Z,1003.25
2018-07-05T10:59:17.690Z,1003.29
2018-07-05T11:00:25.784Z,1003.28
2018-07-05T11:01:29.989Z,1003.24
2018-07-05T11:02:34.913Z,1003.26
2018-07-05T11:06:54.496Z,1003.31
2018-07-05T11:09:14.076Z,1003.28
2018-07-05T11:10:09.569Z,1003.28
2018-07-05T11:11:24.632Z,1003.30
2018-07-05T11:12:20.848Z,1003.31
2018-07-05T11:13:29.046Z,1003.29
2018-07-05T11:14:36.360Z,1003.30
2018-07-05T11:15:48.005Z,1003.27
2018-07-05T11:17:52.219Z,1003.37
2018-07-05T11:19:18.132Z,1003.29
2018-07-05T11:21:05.347Z,1003.29
2018-07-05T11:22:14.569Z,1003.27
2018-07-05T11:23:22.571Z,1003.25
2018-07-05T11:25:31.689Z,1003.32
2018-07-05T11:26:40.092Z,1003.25
2018-07-05T11:27:47.886Z,1003.25
2018-07-05T11:29:52.103Z,1003.26
2018-07-05T11:30:58.355Z,1003.23
2018-07-05T11:33:14.439Z,1003.27
2018-07-05T11:35:33.090Z,1003.26
2018-07-05T11:36:31.316Z,1003.30
2018-07-05T11:37:33.921Z,1003.22
2018-07-05T11:38:39.356Z,1003.23
2018-07-05T11:40:48.865Z,1003.22
2018-07-05T11:42:04.978Z,1003.21
2018-07-05T11:45:13.298Z,1003.15
2018-07-05T11:46:12.992Z,1003.14
2018-07-05T11:48:35.945Z,1003.17
2018-07-05T11:49:33.214Z,1003.20
2018-07-05T11:50:34.523Z,1003.20
2018-07-05T11:52:46.417Z,1003.20
2018-07-05T11:53:57.583Z,1003.20
2018-07-05T11:55:01.277Z,1003.18
2018-07-05T11:56:16.851Z,1003.17
2018-07-05T11:57:18.183Z,1003.19
2018-07-05T11:58:16.964Z,1003.18
2018-07-05T11:59:24.138Z,1003.14
2018-07-05T12:00:28.225Z,1003.18
2018-07-05T12:02:35.737Z,1003.18
2018-07-05T12:03:42.089Z,1003.12
2018-07-05T12:04:41.587Z,1003.14
2018-07-05T12:05:56.127Z,1003.18
2018-07-05T12:07:14.157Z,1003.22
2018-07-05T12:08:16.519Z,1003.19
2018-07-05T12:09:10.075Z,1003.16
2018-07-05T12:10:19.709Z,1003.15
2018-07-05T12:11:27.496Z,1003.18
2018-07-05T12:13:37.242Z,1003.14
2018-07-05T12:14:36.834Z,1003.18
2018-07-05T12:15:49.130Z,1003.18
2018-07-05T12:16:57.848Z,1003.17
2018-07-05T12:17:55.185Z,1003.19
2018-07-05T12:21:15.276Z,1003.26
2018-07-05T12:22:23.577Z,1003.28
2018-07-05T12:23:25.734Z,1003.20
2018-07-05T12:24:30.047Z,1003.27
2018-07-05T12:25:36.504Z,1003.25
2018-07-05T12:26:36.302Z,1003.29
2018-07-05T12:27:52.898Z,1003.29
2018-07-05T12:28:53.314Z,1003.31
2018-07-05T12:30:02.335Z,1003.27
2018-07-05T12:31:06.232Z,1003.25
2018-07-05T12:32:13.712Z,1003.29
2018-07-05T12:33:15.358Z,1003.25
2018-07-05T12:34:16.901Z,1003.21
2018-07-05T12:35:30.117Z,1003.26
2018-07-05T12:36:27.564Z,1003.23
2018-07-05T12:38:39.149Z,1003.20
2018-07-05T12:41:03.329Z,1003.22
2018-07-05T12:42:02.518Z,1003.18
2018-07-05T12:43:04.673Z,1003.23
2018-07-05T12:44:11.746Z,1003.22
2018-07-05T12:45:14.313Z,1003.25
2018-07-05T12:46:30.201Z,1003.28
2018-07-05T12:47:37.675Z,1003.22
2018-07-05T12:48:33.240Z,1003.22
2018-07-05T12:49:37.686Z,1003.25
2018-07-05T12:50:40.976Z,1003.20
2018-07-05T12:51:53.218Z,1003.18
2018-07-05T12:52:49.689Z,1003.22
2018-07-05T12:55:01.068Z,1003.28
2018-07-05T12:56:12.442Z,1003.19
2018-07-05T12:57:15.010Z,1003.13
2018-07-05T12:58:20.342Z,1003.12
2018-07-05T12:59:31.919Z,1003.13
2018-07-05T13:01:43.912Z,1003.12
2018-07-05T13:02:49.673Z,1003.14
2018-07-05T13:04:55.814Z,1003.12
2018-07-05T13:06:03.293Z,1003.11
2018-07-05T13:07:12.519Z,1003.15
2018-07-05T13:08:09.657Z,1003.13
2018-07-05T13:09:18.469Z,1003.08
2018-07-05T13:12:31.737Z,1003.08
2018-07-05T13:13:37.649Z,1003.09
2018-07-05T13:14:42.783Z,1003.10
2018-07-05T13:15:50.251Z,1003.08
2018-07-05T13:16:56.614Z,1003.07
2018-07-05T13:17:59.384Z,1003.11
2018-07-05T13:19:14.658Z,1003.08
2018-07-05T13:20:08.510Z,1003.07
2018-07-05T13:22:25.521Z,1003.04
2018-07-05T13:23:28.199Z,1003.07
2018-07-05T13:24:34.548Z,1003.03
2018-07-05T13:25:41.115Z,1003.06
2018-07-05T13:26:47.069Z,1003.08
2018-07-05T13:27:48.391Z,1003.14
2018-07-05T13:28:57.613Z,1003.10
2018-07-05T13:30:12.981Z,1003.08
2018-07-05T13:31:03.977Z,1003.06
2018-07-05T13:32:15.760Z,1003.10
2018-07-05T13:33:16.381Z,1003.12
2018-07-05T13:34:26.014Z,1003.13
2018-07-05T13:35:30.526Z,1003.09
2018-07-05T13:36:32.689Z,1003.08
2018-07-05T13:37:42.220Z,1003.11
2018-07-05T13:38:48.059Z,1003.16
2018-07-05T13:40:53.089Z,1003.12
2018-07-05T13:42:05.178Z,1003.10
2018-07-05T13:43:07.749Z,1003.12
2018-07-05T13:44:06.282Z,1003.09
2018-07-05T13:45:22.556Z,1003.15
2018-07-05T13:46:27.124Z,1003.15
2018-07-05T13:47:27.229Z,1003.10
2018-07-05T13:48:33.789Z,1003.13
2018-07-05T13:49:35.127Z,1003.12
2018-07-05T13:51:47.943Z,1003.14
2018-07-05T13:52:59.519Z,1003.10
2018-07-05T13:54:07.551Z,1003.12
2018-07-05T13:56:25.550Z,1003.15
2018-07-05T13:57:18.696Z,1003.18
2018-07-05T13:58:23.413Z,1003.16
2018-07-05T13:59:45.640Z,1003.20
2018-07-05T14:00:36.637Z,1003.19
2018-07-05T14:01:42.889Z,1003.21
2018-07-05T14:02:45.867Z,1003.25
2018-07-05T14:03:48.745Z,1003.24
2018-07-05T14:05:05.642Z,1003.23
2018-07-05T14:06:04.011Z,1003.25
2018-07-05T14:07:07.910Z,1003.23
2018-07-05T14:08:19.282Z,1003.25
2018-07-05T14:09:17.762Z,1003.26
2018-07-05T14:10:27.455Z,1003.26
2018-07-05T14:12:38.981Z,1003.24
2018-07-05T14:13:41.130Z,1003.23
2018-07-05T14:14:47.492Z,1003.25
2018-07-05T14:15:53.941Z,1003.26
2018-07-05T14:17:03.369Z,1003.26
2018-07-05T14:18:06.275Z,1003.24
2018-07-05T14:19:16.271Z,1003.23
2018-07-05T14:20:16.701Z,1003.22
2018-07-05T14:21:16.607Z,1003.25
2018-07-05T14:22:34.739Z,1003.27
2018-07-05T14:23:35.271Z,1003.23
2018-07-05T14:24:33.265Z,1003.24
2018-07-05T14:25:41.926Z,1003.24
2018-07-05T14:26:52.787Z,1003.23
2018-07-05T14:27:47.366Z,1003.29
2018-07-05T14:29:01.096Z,1003.25
2018-07-05T14:30:03.663Z,1003.30
2018-07-05T14:31:15.310Z,1003.25
2018-07-05T14:32:13.097Z,1003.27
2018-07-05T14:33:19.286Z,1003.23
2018-07-05T14:34:20.177Z,1003.26
2018-07-05T14:35:31.960Z,1003.28
2018-07-05T14:36:34.741Z,1003.31
2018-07-05T14:37:46.004Z,1003.33
2018-07-05T14:38:58.606Z,1003.33
2018-07-05T14:39:55.538Z,1003.34
2018-07-05T14:40:58.822Z,1003.33
2018-07-05T14:42:03.342Z,1003.36
2018-07-05T14:43:10.412Z,1003.32
2018-07-05T14:46:31.535Z,1003.31
2018-07-05T14:47:32.253Z,1003.31
2018-07-05T14:48:49.353Z,1003.33
2018-07-05T14:50:51.825Z,1003.39
2018-07-05T14:51:59.834Z,1003.38
2018-07-05T14:54:04.952Z,1003.42
2018-07-05T14:55:16.334Z,1003.40
2018-07-05T14:58:31.301Z,1003.44
2018-07-05T15:00:35.006Z,1003.44
2018-07-05T15:02:53.852Z,1003.46
2018-07-05T15:03:48.329Z,1003.46
2018-07-05T15:04:55.607Z,1003.48
2018-07-05T15:06:17.731Z,1003.48
2018-07-05T15:08:26.450Z,1003.46
2018-07-05T15:09:23.590Z,1003.47
2018-07-05T15:10:33.528Z,1003.49
2018-07-05T15:11:35.276Z,1003.50
2018-07-05T15:14:59.259Z,1003.48
2018-07-05T15:17:03.471Z,1003.45
2018-07-05T15:18:06.857Z,1003.52
2018-07-05T15:19:17.317Z,1003.49
2018-07-05T15:21:19.584Z,1003.51
2018-07-05T15:22:33.519Z,1003.52
2018-07-05T15:23:32.398Z,1003.53
2018-07-05T15:25:45.203Z,1003.50
2018-07-05T15:26:49.921Z,1003.48
2018-07-05T15:28:00.372Z,1003.47
2018-07-05T15:29:08.060Z,1003.47
2018-07-05T15:30:00.400Z,1003.53
2018-07-05T15:31:12.885Z,1003.52
2018-07-05T15:32:16.065Z,1003.53
2018-07-05T15:33:30.408Z,1003.55
2018-07-05T15:34:27.856Z,1003.49
2018-07-05T15:35:33.395Z,1003.50
2018-07-05T15:36:45.379Z,1003.49
2018-07-05T15:37:44.921Z,1003.51
2018-07-05T15:38:51.657Z,1003.48
2018-07-05T15:39:54.412Z,1003.50